Time;durP1;ratioP1;P1;durP2;ratioP2;P2;SDS_P1;SDS_P2;PMS_P1;PMS_P2;Temp;Humidity;BMP_temperature;BMP_pressure;BME280_temperature;BME280_humidity;BME280_pressure;Samples;Min_cycle;Max_cycle;Signal;HPM_P1;HPM_P2
2021/10/03 00:00:22;;;;;;;2.22;0.80;;;16.90;88.80;;;;;;5015332;28;20034;-73
2021/10/03 00:02:50;;;;;;;2.17;0.82;;;16.90;90.00;;;;;;5017055;28;20113;-72
2021/10/03 00:05:17;;;;;;;2.78;1.13;;;16.90;90.40;;;;;;5013731;28;20030;-72
2021/10/03 00:07:55;;;;;;;2.85;1.25;;;16.90;92.10;;;;;;5012580;28;20114;-72
2021/10/03 00:10:23;;;;;;;3.65;0.90;;;16.90;88.60;;;;;;5013692;28;20029;-73
2021/10/03 00:12:50;;;;;;;4.18;1.20;;;16.90;87.60;;;;;;5013030;28;20396;-74
2021/10/03 00:15:17;;;;;;;2.05;1.00;;;17.00;89.00;;;;;;5013135;28;20026;-74
2021/10/03 00:17:44;;;;;;;1.35;0.70;;;17.00;87.60;;;;;;5012909;28;20075;-74
2021/10/03 00:20:13;;;;;;;1.92;0.90;;;17.00;87.00;;;;;;5013267;28;20029;-73
2021/10/03 00:22:39;;;;;;;2.85;1.25;;;17.00;88.70;;;;;;5013443;28;20037;-73
2021/10/03 00:25:07;;;;;;;1.42;0.70;;;17.00;88.40;;;;;;5013331;28;20033;-73
2021/10/03 00:27:32;;;;;;;1.77;0.88;;;17.10;90.80;;;;;;5013748;28;20018;-73
2021/10/03 00:29:58;;;;;;;1.75;0.80;;;17.10;88.80;;;;;;5013465;28;20041;-74
2021/10/03 00:32:24;;;;;;;1.95;0.98;;;17.10;90.00;;;;;;5014904;28;20537;-74
2021/10/03 00:34:50;;;;;;;2.70;0.80;;;17.10;86.90;;;;;;5019436;28;20041;-71
2021/10/03 00:37:16;;;;;;;2.42;0.80;;;17.10;89.10;;;;;;5019741;28;20045;-74
2021/10/03 00:39:42;;;;;;;2.47;1.08;;;17.10;88.10;;;;;;5014275;28;20014;-74
2021/10/03 00:42:07;;;;;;;1.27;0.60;;;17.20;87.70;;;;;;5011659;28;20022;-75
2021/10/03 00:44:34;;;;;;;2.80;0.95;;;17.20;88.50;;;;;;5012682;28;20412;-74
2021/10/03 00:46:59;;;;;;;2.08;0.60;;;17.20;90.20;;;;;;5012787;28;20030;-74
2021/10/03 00:49:25;;;;;;;2.72;0.70;;;17.20;85.70;;;;;;5011696;28;20033;-73
2021/10/03 00:51:51;;;;;;;1.42;0.60;;;17.30;88.80;;;;;;5013042;28;20088;-73
2021/10/03 00:54:16;;;;;;;1.55;0.60;;;17.30;85.00;;;;;;5013006;28;20026;-73
2021/10/03 00:56:42;;;;;;;2.95;1.00;;;17.30;90.20;;;;;;5012700;28;20394;-73
2021/10/03 00:59:08;;;;;;;1.38;0.55;;;17.40;89.70;;;;;;5012462;28;20101;-74
2021/10/03 01:01:34;;;;;;;1.35;0.70;;;17.30;88.00;;;;;;5012629;28;20113;-73
2021/10/03 01:04:00;;;;;;;2.35;0.60;;;17.30;90.50;;;;;;5012602;28;20499;-74
2021/10/03 01:06:25;;;;;;;1.92;0.95;;;17.30;90.10;;;;;;5012780;28;20029;-73
2021/10/03 01:08:51;;;;;;;2.50;0.85;;;17.40;86.10;;;;;;5011923;28;20105;-75
2021/10/03 01:11:17;;;;;;;2.95;0.65;;;17.30;91.10;;;;;;5013095;28;20032;-73
2021/10/03 01:13:47;;;;;;;1.58;0.80;;;17.30;90.40;;;;;;5013020;28;20470;-73
2021/10/03 01:16:13;;;;;;;2.83;0.80;;;17.30;86.40;;;;;;5013209;28;20030;-74
2021/10/03 01:18:39;;;;;;;3.25;0.57;;;17.30;91.10;;;;;;5013431;28;20032;-73
2021/10/03 01:21:07;;;;;;;1.30;0.70;;;17.30;87.30;;;;;;5019382;28;20025;-74
2021/10/03 01:23:33;;;;;;;2.70;0.60;;;17.30;90.40;;;;;;5020904;28;20033;-74
2021/10/03 01:25:59;;;;;;;1.27;0.60;;;17.30;90.90;;;;;;5016980;28;20088;-74
2021/10/03 01:28:25;;;;;;;1.25;0.60;;;17.30;89.40;;;;;;5011511;28;20546;-74
2021/10/03 01:30:52;;;;;;;2.72;0.80;;;17.20;90.60;;;;;;5012155;28;20026;-73
2021/10/03 01:33:18;;;;;;;1.27;0.50;;;17.10;88.10;;;;;;5012532;28;20030;-73
2021/10/03 01:35:45;;;;;;;1.38;0.63;;;17.20;90.00;;;;;;5012315;28;20046;-73
2021/10/03 01:38:14;;;;;;;1.38;0.65;;;17.10;89.50;;;;;;5010930;28;20459;-74
2021/10/03 01:40:41;;;;;;;1.65;0.80;;;17.10;88.30;;;;;;5012371;28;20117;-73
2021/10/03 01:43:07;;;;;;;1.95;0.60;;;17.10;90.70;;;;;;5012524;28;20026;-74
2021/10/03 01:45:32;;;;;;;1.40;0.70;;;17.10;89.40;;;;;;5012456;28;20033;-73
2021/10/03 01:48:14;;;;;;;1.90;0.77;;;17.00;92.00;;;;;;5011130;28;20543;-73
2021/10/03 01:50:42;;;;;;;1.48;0.70;;;17.00;91.90;;;;;;5012381;28;20025;-73
2021/10/03 01:53:09;;;;;;;2.28;0.77;;;17.00;91.40;;;;;;5012245;28;20026;-74
2021/10/03 01:55:36;;;;;;;1.52;0.50;;;16.90;90.20;;;;;;5012336;28;20069;-73
2021/10/03 01:58:02;;;;;;;0.98;0.57;;;16.90;91.00;;;;;;5011958;28;20025;-73
2021/10/03 02:00:28;;;;;;;2.45;0.80;;;16.90;91.10;;;;;;5012593;28;20034;-72
2021/10/03 02:02:59;;;;;;;2.15;0.85;;;16.90;92.40;;;;;;5018805;28;20026;-73
2021/10/03 02:05:26;;;;;;;3.15;0.75;;;16.90;91.30;;;;;;5014066;28;20029;-74
2021/10/03 02:07:51;;;;;;;1.98;0.82;;;16.90;91.20;;;;;;5012100;28;20034;-73
2021/10/03 02:10:17;;;;;;;1.10;0.70;;;16.90;92.70;;;;;;5012266;28;20091;-72
2021/10/03 02:12:43;;;;;;;1.40;0.80;;;16.90;90.30;;;;;;5012234;28;20080;-73
2021/10/03 02:15:08;;;;;;;1.38;0.70;;;17.00;91.80;;;;;;5010849;28;20038;-73
2021/10/03 02:17:34;;;;;;;0.95;0.50;;;16.90;89.10;;;;;;5012261;28;20018;-73
2021/10/03 02:20:00;;;;;;;1.30;0.60;;;16.90;90.90;;;;;;5011869;28;20414;-73
2021/10/03 02:22:26;;;;;;;1.15;0.60;;;17.00;91.30;;;;;;5011879;28;20022;-73
2021/10/03 02:24:56;;;;;;;2.00;0.75;;;17.00;90.60;;;;;;5015208;28;20356;-72
2021/10/03 02:27:25;;;;;;;1.85;0.82;;;17.00;90.20;;;;;;5015607;28;20148;-72
2021/10/03 02:29:51;;;;;;;2.30;1.08;;;17.00;93.00;;;;;;5015362;28;20080;-72
2021/10/03 02:32:17;;;;;;;1.77;0.90;;;17.00;92.20;;;;;;5015495;28;20030;-73
2021/10/03 02:34:43;;;;;;;1.65;0.90;;;17.00;91.20;;;;;;5014007;28;20033;-74
2021/10/03 02:37:09;;;;;;;1.73;0.80;;;17.00;92.60;;;;;;5015126;28;20018;-74
2021/10/03 02:39:34;;;;;;;2.60;0.90;;;17.00;90.90;;;;;;5015610;28;20096;-73
2021/10/03 02:42:00;;;;;;;1.50;0.52;;;17.00;92.60;;;;;;5018793;28;20061;-74
2021/10/03 02:44:26;;;;;;;1.77;0.98;;;17.00;91.60;;;;;;5022958;28;20026;-73
2021/10/03 02:46:52;;;;;;;1.08;0.60;;;17.00;90.50;;;;;;5017035;28;20064;-72
2021/10/03 02:49:17;;;;;;;1.15;0.68;;;17.00;91.30;;;;;;5015546;28;20038;-72
2021/10/03 02:51:43;;;;;;;1.67;0.73;;;17.00;91.50;;;;;;5015316;28;20348;-72
2021/10/03 02:54:08;;;;;;;3.72;0.77;;;16.90;91.90;;;;;;5014833;28;20419;-73
2021/10/03 02:56:34;;;;;;;3.13;0.82;;;16.90;93.50;;;;;;5014060;28;20022;-73
2021/10/03 02:59:00;;;;;;;3.88;0.80;;;16.90;92.10;;;;;;5013783;28;20391;-72
2021/10/03 03:01:26;;;;;;;1.98;0.90;;;16.90;91.40;;;;;;5015484;28;20156;-73
2021/10/03 03:03:52;;;;;;;2.08;0.63;;;16.90;93.10;;;;;;5015985;28;20096;-74
2021/10/03 03:06:17;;;;;;;1.80;0.60;;;16.90;91.00;;;;;;5023850;28;20377;-72
2021/10/03 03:08:43;;;;;;;2.53;0.50;;;16.90;90.40;;;;;;5025072;28;20022;-72
2021/10/03 03:11:09;;;;;;;1.50;0.88;;;16.90;90.90;;;;;;5025691;28;20113;-72
2021/10/03 03:13:37;;;;;;;1.67;0.50;;;16.90;91.10;;;;;;5015525;28;20030;-73
2021/10/03 03:16:03;;;;;;;1.85;0.73;;;16.90;91.40;;;;;;5014579;28;20037;-73
2021/10/03 03:18:29;;;;;;;1.48;0.80;;;16.90;90.70;;;;;;5013325;28;20367;-72
2021/10/03 03:20:58;;;;;;;1.70;0.77;;;16.90;91.60;;;;;;5013054;28;20018;-73
2021/10/03 03:23:23;;;;;;;2.03;0.75;;;16.90;92.00;;;;;;5014478;28;20422;-72
2021/10/03 03:25:49;;;;;;;2.35;0.70;;;16.90;89.10;;;;;;5014546;28;20026;-73
2021/10/03 03:28:15;;;;;;;1.85;0.80;;;17.00;91.30;;;;;;5014312;28;20022;-72
2021/10/03 03:30:41;;;;;;;1.98;0.70;;;17.00;90.50;;;;;;5014387;28;20068;-72
2021/10/03 03:33:10;;;;;;;2.92;1.00;;;17.00;90.20;;;;;;5014165;28;20030;-75
2021/10/03 03:35:35;;;;;;;5.25;1.30;;;17.00;91.70;;;;;;5012120;28;20034;-73
2021/10/03 03:38:04;;;;;;;1.98;0.98;;;17.00;91.80;;;;;;5013634;28;20378;-72
2021/10/03 03:40:30;;;;;;;1.30;0.90;;;17.00;91.60;;;;;;5014236;28;20030;-73
2021/10/03 03:42:55;;;;;;;3.85;1.02;;;17.00;91.00;;;;;;5014293;28;20029;-72
2021/10/03 03:45:21;;;;;;;3.45;0.93;;;17.10;90.60;;;;;;5014373;28;20034;-72
2021/10/03 03:47:47;;;;;;;3.13;1.40;;;17.10;90.70;;;;;;5014063;28;20030;-73
2021/10/03 03:50:15;;;;;;;3.83;0.95;;;17.10;92.40;;;;;;5013617;28;20026;-72
2021/10/03 03:52:44;;;;;;;5.05;1.05;;;17.10;93.90;;;;;;5012683;28;20496;-73
2021/10/03 03:55:10;;;;;;;3.13;0.60;;;17.00;93.50;;;;;;5013749;28;20045;-73
2021/10/03 03:57:36;;;;;;;1.23;0.40;;;16.80;93.50;;;;;;5014106;28;20022;-73
2021/10/03 04:00:05;;;;;;;3.13;0.77;;;16.70;93.50;;;;;;5013624;28;20041;-73
2021/10/03 04:02:31;;;;;;;1.95;0.40;;;16.60;93.60;;;;;;5012889;28;20112;-72
2021/10/03 04:04:57;;;;;;;1.52;0.52;;;16.50;93.60;;;;;;5022762;28;20089;-74
2021/10/03 04:07:24;;;;;;;1.60;0.50;;;16.50;93.90;;;;;;5018276;28;20029;-72
2021/10/03 04:09:49;;;;;;;3.15;0.40;;;16.40;93.90;;;;;;5013618;28;20105;-73
2021/10/03 04:12:15;;;;;;;2.63;0.38;;;16.30;94.10;;;;;;5012001;28;20122;-72
2021/10/03 04:14:41;;;;;;;2.72;0.50;;;16.30;94.20;;;;;;5013359;28;20382;-72
2021/10/03 04:17:06;;;;;;;4.03;0.55;;;16.30;94.40;;;;;;5011743;28;20022;-73
2021/10/03 04:19:33;;;;;;;1.23;0.40;;;16.20;93.90;;;;;;5013252;28;20025;-73
2021/10/03 04:21:59;;;;;;;2.78;0.93;;;16.10;94.30;;;;;;5013495;28;20028;-74
2021/10/03 04:24:25;;;;;;;0.35;0.35;;;16.10;94.00;;;;;;5013483;28;20101;-73
2021/10/03 04:26:51;;;;;;;2.63;0.60;;;16.00;94.00;;;;;;5013293;28;20517;-74
2021/10/03 04:29:16;;;;;;;2.42;0.32;;;16.00;93.70;;;;;;5011805;28;20106;-73
2021/10/03 04:31:42;;;;;;;1.85;0.57;;;15.90;93.90;;;;;;5013234;28;20108;-73
2021/10/03 04:34:09;;;;;;;1.67;0.30;;;15.80;93.70;;;;;;5013240;28;20068;-73
2021/10/03 04:36:35;;;;;;;1.85;0.50;;;15.80;93.70;;;;;;5013014;28;20060;-73
2021/10/03 04:39:00;;;;;;;1.65;0.60;;;15.70;93.80;;;;;;5013199;28;20029;-73
2021/10/03 04:41:26;;;;;;;3.55;0.85;;;15.60;93.80;;;;;;5013549;28;20033;-73
2021/10/03 04:43:51;;;;;;;1.60;0.43;;;15.60;93.80;;;;;;5013122;28;20022;-72
2021/10/03 04:46:17;;;;;;;4.15;0.63;;;15.50;93.90;;;;;;5012907;28;21048;-73
2021/10/03 04:48:43;;;;;;;1.17;0.60;;;15.50;93.90;;;;;;5013724;28;20064;-73
2021/10/03 04:51:08;;;;;;;4.10;0.70;;;15.50;93.90;;;;;;5013531;28;20026;-73
2021/10/03 04:53:34;;;;;;;0.95;0.50;;;15.40;94.10;;;;;;5015844;28;20049;-73
2021/10/03 04:55:59;;;;;;;0.43;0.30;;;15.40;94.20;;;;;;5020330;28;20082;-73
2021/10/03 04:58:25;;;;;;;2.55;0.60;;;15.30;94.20;;;;;;5020595;28;20053;-71
2021/10/03 05:00:51;;;;;;;1.90;0.57;;;15.30;94.30;;;;;;5012910;28;20033;-72
2021/10/03 05:03:18;;;;;;;1.60;0.63;;;15.30;94.40;;;;;;5012781;28;20026;-73
2021/10/03 05:05:44;;;;;;;1.73;0.68;;;15.30;94.50;;;;;;5012809;28;20030;-72
2021/10/03 05:08:12;;;;;;;2.80;0.80;;;15.30;94.50;;;;;;5012935;28;20033;-73
2021/10/03 05:10:38;;;;;;;2.40;0.70;;;15.30;94.40;;;;;;5011790;28;20347;-73
2021/10/03 05:13:04;;;;;;;3.67;0.85;;;15.30;94.40;;;;;;5012549;28;20101;-73
2021/10/03 05:15:30;;;;;;;1.98;0.70;;;15.20;94.30;;;;;;5012316;28;20453;-73
2021/10/03 05:17:55;;;;;;;1.23;0.60;;;15.20;94.30;;;;;;5012929;28;20022;-74
2021/10/03 05:20:21;;;;;;;2.33;1.13;;;15.20;94.40;;;;;;5012857;28;20478;-73
2021/10/03 05:22:46;;;;;;;1.67;0.95;;;15.20;94.40;;;;;;5013480;28;20026;-73
2021/10/03 05:25:12;;;;;;;3.42;0.90;;;15.20;94.40;;;;;;5018182;28;20474;-73
2021/10/03 05:27:38;;;;;;;2.67;1.00;;;15.20;94.40;;;;;;5015112;28;20144;-73
2021/10/03 05:30:04;;;;;;;2.25;1.23;;;15.20;94.60;;;;;;5012774;28;20022;-74
2021/10/03 05:32:29;;;;;;;4.68;1.48;;;15.20;94.60;;;;;;5012471;28;20283;-72
2021/10/03 05:34:55;;;;;;;1.70;1.00;;;15.10;94.60;;;;;;5011304;28;20273;-73
2021/10/03 05:37:21;;;;;;;1.73;0.90;;;15.20;94.70;;;;;;5012272;28;20390;-73
2021/10/03 05:39:46;;;;;;;2.47;0.85;;;15.20;94.60;;;;;;5012499;28;20045;-73
2021/10/03 05:42:12;;;;;;;3.60;0.70;;;15.10;94.50;;;;;;5010625;28;20033;-73
2021/10/03 05:44:37;;;;;;;2.15;1.00;;;15.10;94.50;;;;;;5011107;28;20026;-73
2021/10/03 05:47:06;;;;;;;3.83;1.00;;;15.10;94.50;;;;;;5011105;28;20363;-73
2021/10/03 05:49:32;;;;;;;3.40;0.60;;;15.10;94.40;;;;;;5012300;28;20033;-72
2021/10/03 05:51:57;;;;;;;4.00;0.77;;;15.00;94.40;;;;;;5012437;28;20030;-72
2021/10/03 05:54:23;;;;;;;2.38;0.80;;;15.00;94.40;;;;;;5010874;28;20347;-73
2021/10/03 05:56:48;;;;;;;3.75;0.90;;;15.00;94.40;;;;;;5011276;28;20029;-73
2021/10/03 05:59:14;;;;;;;3.88;0.95;;;15.00;94.50;;;;;;5013396;28;20084;-72
2021/10/03 06:01:40;;;;;;;4.30;1.20;;;15.00;94.40;;;;;;5015915;28;20434;-72
2021/10/03 06:04:07;;;;;;;4.38;0.63;;;15.00;94.40;;;;;;5016267;28;20030;-72
2021/10/03 06:06:32;;;;;;;3.15;0.80;;;15.00;94.30;;;;;;5018008;28;20026;-71
2021/10/03 06:08:58;;;;;;;2.47;0.90;;;14.90;94.30;;;;;;5023613;28;20029;-74
2021/10/03 06:11:24;;;;;;;3.40;1.00;;;14.90;94.40;;;;;;5015873;28;20037;-73
2021/10/03 06:13:49;;;;;;;8.40;1.45;;;14.90;94.40;;;;;;5015629;28;20073;-73
2021/10/03 06:16:15;;;;;;;3.80;1.08;;;14.80;94.50;;;;;;5014065;28;20081;-73
2021/10/03 06:18:41;;;;;;;2.65;0.80;;;14.90;94.60;;;;;;5015647;28;20084;-72
2021/10/03 06:21:13;;;;;;;4.75;1.02;;;14.80;94.60;;;;;;5015267;28;20033;-73
2021/10/03 06:23:40;;;;;;;2.55;0.80;;;14.80;94.60;;;;;;5015719;28;20022;-72
2021/10/03 06:26:06;;;;;;;3.70;1.35;;;14.80;94.70;;;;;;5015318;28;20514;-74
2021/10/03 06:28:31;;;;;;;2.33;0.75;;;14.80;94.70;;;;;;5015681;28;20101;-73
2021/10/03 06:30:57;;;;;;;1.92;0.82;;;14.90;94.70;;;;;;5015431;28;20049;-73
2021/10/03 06:33:22;;;;;;;4.07;1.17;;;14.90;94.70;;;;;;5015525;28;20045;-73
2021/10/03 06:35:48;;;;;;;2.85;1.05;;;14.90;94.80;;;;;;5015831;28;20033;-73
2021/10/03 06:38:14;;;;;;;4.53;1.30;;;14.90;94.80;;;;;;5015217;28;20504;-73
2021/10/03 06:40:40;;;;;;;3.70;1.30;;;14.90;94.80;;;;;;5017370;28;20048;-73
2021/10/03 06:43:05;;;;;;;5.00;1.75;;;14.90;94.80;;;;;;5024119;28;20033;-73
2021/10/03 06:45:31;;;;;;;2.65;1.20;;;14.90;94.80;;;;;;5025124;28;20021;-72
2021/10/03 06:47:57;;;;;;;4.57;1.20;;;14.90;94.80;;;;;;5018941;28;20208;-73
2021/10/03 06:50:22;;;;;;;4.43;1.55;;;14.90;94.80;;;;;;5014917;28;20022;-72
2021/10/03 06:52:48;;;;;;;3.60;1.73;;;14.90;94.70;;;;;;5014778;28;20069;-73
2021/10/03 06:55:13;;;;;;;4.13;1.70;;;14.90;94.70;;;;;;5014538;28;20080;-73
2021/10/03 06:57:39;;;;;;;2.88;1.40;;;14.90;94.80;;;;;;5015120;28;20578;-73
2021/10/03 07:00:06;;;;;;;4.00;2.03;;;15.00;94.80;;;;;;5014536;28;20466;-73
2021/10/03 07:02:32;;;;;;;3.90;1.70;;;14.90;94.70;;;;;;5012833;28;20080;-72
2021/10/03 07:04:58;;;;;;;4.88;1.70;;;15.00;94.70;;;;;;5013873;28;20033;-72
2021/10/03 07:07:28;;;;;;;3.42;1.60;;;15.00;94.80;;;;;;5013427;28;20030;-73
2021/10/03 07:09:54;;;;;;;;;;;15.00;94.80;;;;;;5014237;28;20021;-73
2021/10/03 07:12:19;;;;;;;5.97;2.47;;;15.00;94.80;;;;;;5012320;28;19992;-72
2021/10/03 07:14:51;;;;;;;2.65;1.13;;;15.00;94.90;;;;;;5013548;28;20045;-72
2021/10/03 07:17:17;;;;;;;2.88;1.35;;;15.00;94.80;;;;;;5013628;28;20021;-73
2021/10/03 07:19:43;;;;;;;4.30;1.70;;;15.00;94.80;;;;;;5012314;28;20044;-72
2021/10/03 07:22:08;;;;;;;3.58;1.65;;;15.00;94.90;;;;;;5015082;28;20018;-72
2021/10/03 07:24:35;;;;;;;1.77;0.80;;;14.90;94.80;;;;;;5013583;28;20033;-73
2021/10/03 07:27:02;;;;;;;2.80;1.38;;;14.90;94.80;;;;;;5012268;28;20048;-72
2021/10/03 07:29:27;;;;;;;6.15;1.10;;;14.90;94.90;;;;;;5012998;28;20422;-73
2021/10/03 07:31:53;;;;;;;1.25;0.57;;;14.90;94.60;;;;;;5011968;28;20037;-73
2021/10/03 07:34:19;;;;;;;4.70;1.65;;;14.90;93.40;;;;;;5012937;28;20388;-73
2021/10/03 07:36:44;;;;;;;3.90;1.48;;;14.90;94.20;;;;;;5013262;28;20084;-73
2021/10/03 07:39:10;;;;;;;4.32;1.67;;;14.90;94.50;;;;;;5011836;28;20029;-73
2021/10/03 07:41:36;;;;;;;3.72;1.50;;;14.90;94.70;;;;;;5013643;28;20022;-72
2021/10/03 07:44:02;;;;;;;4.10;1.30;;;14.90;94.70;;;;;;5013041;28;20110;-72
2021/10/03 07:46:28;;;;;;;2.35;1.02;;;14.90;94.80;;;;;;5012807;28;20406;-72
2021/10/03 07:48:54;;;;;;;3.65;1.90;;;14.90;94.50;;;;;;5013184;28;20505;-72
2021/10/03 07:51:20;;;;;;;2.63;1.20;;;14.90;94.60;;;;;;5012980;28;20108;-72
2021/10/03 07:53:45;;;;;;;2.40;1.23;;;14.90;94.70;;;;;;5012852;28;20478;-73
2021/10/03 07:56:12;;;;;;;2.95;1.10;;;14.90;94.80;;;;;;5012802;28;20034;-73
2021/10/03 07:58:37;;;;;;;2.90;1.27;;;14.90;94.70;;;;;;5011928;28;20026;-72
2021/10/03 08:02:19;;;;;;;3.42;1.40;;;14.90;94.80;;;;;;5088608;27;1247179;-73
2021/10/03 08:04:45;;;;;;;1.92;0.80;;;14.90;94.70;;;;;;5093657;28;20047;-74
2021/10/03 08:07:11;;;;;;;2.13;1.02;;;14.80;94.70;;;;;;5115044;28;20020;-73
2021/10/03 08:09:36;;;;;;;3.35;1.48;;;14.90;94.80;;;;;;5114565;28;20055;-71
2021/10/03 08:12:02;;;;;;;4.65;1.67;;;14.90;94.80;;;;;;5112394;28;21049;-72
2021/10/03 08:14:28;;;;;;;3.22;1.50;;;14.90;94.90;;;;;;5089497;28;20392;-74
2021/10/03 08:16:53;;;;;;;4.82;1.95;;;14.90;94.90;;;;;;5071522;28;20028;-72
2021/10/03 08:19:19;;;;;;;2.40;1.45;;;14.90;94.90;;;;;;5071447;28;20020;-72
2021/10/03 08:21:45;;;;;;;3.10;1.50;;;14.90;94.90;;;;;;5089530;28;20043;-72
2021/10/03 08:24:11;;;;;;;3.58;1.77;;;14.90;94.90;;;;;;5071324;28;20073;-73
2021/10/03 08:26:39;;;;;;;2.67;1.60;;;14.90;94.90;;;;;;5089399;28;20154;-71
2021/10/03 08:29:05;;;;;;;4.05;1.30;;;14.80;94.90;;;;;;5075091;28;20031;-71
2021/10/03 08:31:31;;;;;;;2.42;1.10;;;14.80;94.70;;;;;;5106512;28;20029;-74
2021/10/03 08:33:57;;;;;;;4.43;1.13;;;14.80;94.50;;;;;;5088951;28;20024;-72
2021/10/03 08:36:22;;;;;;;2.67;0.70;;;14.70;94.40;;;;;;5090458;28;20078;-73
2021/10/03 08:38:48;;;;;;;3.42;0.60;;;14.60;94.20;;;;;;5088705;28;20419;-73
2021/10/03 08:41:14;;;;;;;3.53;1.27;;;14.60;94.20;;;;;;5088812;28;20044;-73
2021/10/03 08:43:39;;;;;;;2.92;1.13;;;14.50;94.10;;;;;;5070729;28;20021;-72
2021/10/03 08:46:08;;;;;;;2.85;0.70;;;14.50;94.10;;;;;;5088982;28;20391;-73
2021/10/03 08:48:34;;;;;;;3.45;0.90;;;14.40;94.10;;;;;;5088669;28;20130;-72
2021/10/03 08:51:00;;;;;;;2.35;0.98;;;14.40;94.20;;;;;;5089182;28;20115;-72
2021/10/03 08:53:25;;;;;;;5.60;1.00;;;14.40;94.30;;;;;;5088655;28;20024;-73
2021/10/03 08:55:56;;;;;;;4.45;1.08;;;14.30;94.30;;;;;;5089146;28;20031;-72
2021/10/03 08:58:22;;;;;;;5.75;1.25;;;14.30;94.40;;;;;;5088540;28;20020;-74
2021/10/03 09:00:49;;;;;;;3.47;1.30;;;14.30;94.50;;;;;;5088523;28;20303;-73
2021/10/03 09:03:17;;;;;;;3.17;1.20;;;14.30;94.60;;;;;;5070200;28;20029;-74
2021/10/03 09:05:51;;;;;;;2.55;0.88;;;14.30;94.60;;;;;;5070242;28;20020;-72
2021/10/03 09:08:19;;;;;;;3.92;1.33;;;14.30;94.50;;;;;;5088372;28;20095;-73
2021/10/03 09:10:57;;;;;;;1.13;0.75;;;14.30;94.90;;;;;;5089107;28;20035;-73
2021/10/03 09:13:32;;;;;;;5.60;1.00;;;14.30;94.20;;;;;;5058383;28;20108;-73
2021/10/03 09:16:12;;;;;;;2.85;1.10;;;14.30;94.40;;;;;;5074806;28;20542;-72
2021/10/03 09:18:44;;;;;;;2.50;1.02;;;14.20;94.50;;;;;;5074656;28;20483;-72
2021/10/03 09:21:29;;;;;;;2.10;1.25;;;14.20;94.50;;;;;;5074298;28;20610;-73
2021/10/03 09:24:02;;;;;;;2.30;1.20;;;14.20;94.50;;;;;;5074553;28;20036;-73
2021/10/03 09:26:28;;;;;;;2.65;1.17;;;14.20;94.50;;;;;;5056321;28;20017;-73
2021/10/03 09:28:54;;;;;;;1.48;0.85;;;14.20;94.60;;;;;;5074475;28;20024;-73
2021/10/03 09:31:21;;;;;;;1.77;1.00;;;14.20;94.70;;;;;;5074089;28;20029;-72
2021/10/03 09:33:55;;;;;;;4.72;2.97;;;14.20;94.40;;;;;;5074089;28;20028;-72
2021/10/03 09:36:22;;;;;;;2.25;1.00;;;14.20;94.50;;;;;;5074389;28;20051;-73
2021/10/03 09:39:01;;;;;;;2.70;1.10;;;14.30;94.50;;;;;;5074465;28;20020;-72
2021/10/03 09:41:32;;;;;;;1.00;0.85;;;14.20;94.40;;;;;;5056289;28;20035;-73
2021/10/03 09:44:00;;;;;;;2.45;0.80;;;14.20;94.50;;;;;;5074453;28;20025;-74
2021/10/03 09:46:46;;;;;;;5.53;1.15;;;14.20;94.10;;;;;;5074228;28;20070;-73
2021/10/03 09:49:16;;;;;;;1.55;0.80;;;14.20;94.30;;;;;;5074281;28;20024;-73
2021/10/03 09:51:45;;;;;;;1.48;0.73;;;14.20;94.40;;;;;;5074380;28;20025;-74
2021/10/03 09:54:11;;;;;;;0.60;0.40;;;14.20;94.00;;;;;;5056283;28;20028;-72
2021/10/03 09:56:37;;;;;;;1.08;0.40;;;14.20;94.00;;;;;;5074239;28;20368;-73
2021/10/03 09:59:04;;;;;;;1.23;0.70;;;14.30;93.80;;;;;;5056203;28;20020;-74
2021/10/03 10:01:35;;;;;;;0.77;0.52;;;14.30;94.10;;;;;;5074002;28;20040;-73
2021/10/03 10:04:06;;;;;;;1.33;0.73;;;14.30;94.10;;;;;;5074015;28;20104;-72
2021/10/03 10:06:33;;;;;;;1.08;0.60;;;14.30;94.20;;;;;;5073519;28;20078;-73
2021/10/03 10:09:03;;;;;;;0.98;0.70;;;14.40;94.20;;;;;;5055976;28;20147;-72
2021/10/03 10:11:49;;;;;;;0.80;0.65;;;14.40;94.20;;;;;;5077872;28;20062;-72
2021/10/03 10:14:16;;;;;;;1.58;0.82;;;14.50;94.10;;;;;;5076941;28;20028;-73
2021/10/03 10:16:49;;;;;;;3.35;0.95;;;14.50;94.40;;;;;;5077908;28;20023;-74
2021/10/03 10:19:30;;;;;;;0.60;0.60;;;14.60;94.40;;;;;;5063939;28;20047;-72
2021/10/03 10:22:11;;;;;;;1.38;0.52;;;14.70;94.50;;;;;;5061572;28;20419;-72
2021/10/03 10:24:43;;;;;;;1.17;0.70;;;14.70;93.80;;;;;;5072705;28;20370;-72
2021/10/03 10:27:29;;;;;;;0.88;0.63;;;14.80;93.90;;;;;;5055506;28;20025;-72
2021/10/03 10:30:01;;;;;;;1.23;0.40;;;14.80;93.90;;;;;;5058893;28;20037;-72
2021/10/03 10:32:29;;;;;;;1.95;0.50;;;14.80;93.80;;;;;;5073876;28;20416;-73
2021/10/03 10:35:07;;;;;;;0.70;0.50;;;14.90;93.70;;;;;;5073081;28;20571;-74
2021/10/03 10:37:54;;;;;;;1.38;0.40;;;14.90;93.70;;;;;;5073144;28;20028;-73
2021/10/03 10:40:26;;;;;;;1.92;0.43;;;14.90;93.70;;;;;;5055143;28;20342;-73
2021/10/03 10:43:03;;;;;;;1.85;0.65;;;14.90;93.60;;;;;;5054974;28;20033;-74
2021/10/03 10:45:33;;;;;;;1.40;0.75;;;15.00;93.00;;;;;;5055850;28;20025;-73
2021/10/03 10:48:11;;;;;;;3.05;0.80;;;15.00;93.20;;;;;;5077356;28;20372;-74
2021/10/03 10:50:38;;;;;;;1.08;0.50;;;15.10;93.20;;;;;;5063302;28;20123;-73
2021/10/03 10:53:27;;;;;;;1.50;0.65;;;15.10;93.30;;;;;;5074505;28;20104;-73
2021/10/03 10:56:00;;;;;;;0.50;0.40;;;15.10;93.10;;;;;;5073291;28;20016;-72
2021/10/03 10:58:26;;;;;;;1.73;0.73;;;15.20;93.10;;;;;;5072861;28;20099;-73
2021/10/03 11:01:20;;;;;;;1.20;0.55;;;15.20;93.30;;;;;;5072758;28;20044;-72
2021/10/03 11:03:50;;;;;;;3.55;0.75;;;15.30;93.10;;;;;;5041493;28;20040;-73
2021/10/03 11:06:22;;;;;;;0.95;0.50;;;15.30;92.90;;;;;;5054833;28;20031;-74
2021/10/03 11:08:57;;;;;;;0.52;0.30;;;15.40;92.90;;;;;;5072691;28;20028;-73
2021/10/03 11:11:32;;;;;;;0.60;0.35;;;15.40;93.10;;;;;;5072520;28;20065;-74
2021/10/03 11:14:19;;;;;;;0.45;0.35;;;15.50;93.00;;;;;;5072670;28;20035;-74
2021/10/03 11:16:50;;;;;;;1.75;0.90;;;15.50;93.00;;;;;;5073052;28;20024;-73
2021/10/03 11:19:41;;;;;;;0.90;0.70;;;15.50;92.80;;;;;;5072673;28;20031;-74
2021/10/03 11:22:23;;;;;;;1.48;0.80;;;15.60;92.50;;;;;;5072788;28;20024;-73
2021/10/03 11:24:52;;;;;;;1.25;0.80;;;15.50;92.60;;;;;;5072790;28;20099;-73
2021/10/03 11:27:20;;;;;;;1.63;1.02;;;15.50;92.60;;;;;;5054128;28;20043;-74
2021/10/03 11:29:49;;;;;;;1.88;1.00;;;15.50;92.70;;;;;;5072768;28;20028;-73
2021/10/03 11:32:27;;;;;;;1.98;1.20;;;15.50;92.70;;;;;;5072617;28;20047;-72
2021/10/03 11:35:03;;;;;;;1.02;0.68;;;15.50;92.80;;;;;;5072503;28;20029;-73
2021/10/03 11:37:37;;;;;;;2.15;0.90;;;15.50;92.60;;;;;;5072392;28;20487;-72
2021/10/03 11:40:18;;;;;;;1.58;1.13;;;15.50;92.60;;;;;;5054623;28;20031;-73
2021/10/03 11:42:55;;;;;;;1.45;1.10;;;15.50;92.60;;;;;;5072687;28;20032;-73
2021/10/03 11:45:22;;;;;;;2.22;1.08;;;15.60;92.60;;;;;;5072240;28;20043;-73
2021/10/03 11:47:58;;;;;;;1.60;0.95;;;15.60;92.60;;;;;;5072729;28;20028;-72
2021/10/03 11:50:29;;;;;;;2.08;1.10;;;15.60;92.50;;;;;;5072056;28;20047;-73
2021/10/03 11:53:19;;;;;;;1.45;0.90;;;15.50;92.40;;;;;;5072452;28;20021;-72
2021/10/03 11:55:48;;;;;;;2.30;1.40;;;15.40;92.50;;;;;;5062432;28;20037;-72
2021/10/03 11:58:16;;;;;;;2.05;1.23;;;15.40;92.50;;;;;;5072931;28;20063;-73
2021/10/03 12:00:53;;;;;;;1.45;1.00;;;15.40;92.20;;;;;;5072279;28;20036;-73
2021/10/03 12:03:20;;;;;;;1.55;1.00;;;15.40;92.40;;;;;;5075216;28;20024;-72
2021/10/03 12:05:46;;;;;;;1.83;1.30;;;15.40;92.50;;;;;;5076929;28;20025;-72
2021/10/03 12:08:14;;;;;;;1.67;1.00;;;15.50;92.70;;;;;;5073196;28;20035;-73
2021/10/03 12:10:59;;;;;;;2.25;1.60;;;15.50;92.70;;;;;;5054012;28;20036;-73
2021/10/03 12:13:29;;;;;;;1.65;0.90;;;15.60;92.80;;;;;;5078735;28;20025;-74
2021/10/03 12:16:01;;;;;;;1.60;1.05;;;15.50;92.70;;;;;;5077901;28;20028;-73
2021/10/03 12:18:30;;;;;;;2.03;1.17;;;15.50;92.60;;;;;;5071975;28;20016;-73
2021/10/03 12:21:16;;;;;;;1.85;1.02;;;15.50;92.80;;;;;;5072136;28;20036;-72
2021/10/03 12:23:47;;;;;;;5.10;1.80;;;15.60;92.60;;;;;;5071606;28;20347;-73
2021/10/03 12:26:26;;;;;;;1.52;1.08;;;15.60;92.80;;;;;;5072060;28;20107;-73
2021/10/03 12:29:07;;;;;;;2.35;1.10;;;15.60;92.70;;;;;;5072367;28;20028;-75
2021/10/03 12:31:46;;;;;;;2.28;1.08;;;15.60;92.70;;;;;;5071881;28;20035;-73
2021/10/03 12:34:14;;;;;;;2.03;1.50;;;15.70;92.50;;;;;;5072222;28;20055;-74
2021/10/03 12:36:49;;;;;;;2.65;2.05;;;15.70;92.50;;;;;;5072138;28;20119;-74
2021/10/03 12:39:16;;;;;;;3.85;1.90;;;15.70;92.60;;;;;;5054054;28;20025;-74
2021/10/03 12:41:41;;;;;;;1.90;1.08;;;15.60;92.70;;;;;;5053757;28;20056;-73
2021/10/03 12:44:07;;;;;;;2.42;1.65;;;15.60;92.70;;;;;;5071848;28;20470;-73
2021/10/03 12:46:34;;;;;;;2.17;1.35;;;15.60;92.80;;;;;;5071963;28;20046;-73
2021/10/03 12:49:00;;;;;;;6.93;1.67;;;15.60;92.80;;;;;;5057502;28;20036;-74
2021/10/03 12:51:25;;;;;;;1.98;1.20;;;15.70;92.80;;;;;;5057747;28;20384;-75
2021/10/03 12:53:51;;;;;;;2.22;1.13;;;15.60;92.80;;;;;;5075808;28;20035;-74